Gloucester, Massachusetts
Current Conditions -  °F | °C
As of 8:53 AM on Sunday 28 Dec 2014 (Local Time) from KBVY Reporting Station
Light Rain Light Rain  
Wind Chill: 41°   Ceiling: 8000
Heat Index: 46°   Visibility: 10mi
Dew Point: 36°   Wind: 10mph
Humidity: 68%   Direction: 220°SW
Pressure: 29.79"   Gusts: NA
Location:  42.61°N, 70.67°W
Report Text: KBVY 281353Z 22009KT 10SM -RA OVC080 08/02 A2979 RMK AO2 RAB16 SLP085 P0000 T00780022
Loading
Personal Weather Stations






























Interactive Weather Map New forecast layout! Learn more

10-Day Weather Forecast

Advertisements
Track Severe Weather on mobile